Dades meteomassalio
Diari Summary for Diciembre 24, 2017 Units:  English    Metric   Both
« Previous Day
Next Day »
Diari Semanal Mensual Anual Personalitzat
  Maxima: Minima: Mijana:
Temperatura: TemperatureC °F -3.9 °F 0.8 °F
Rosada: DewpointC °F -5.2 °F -1.2 °F
Humitat: Humidity % 73 % 87 %
Velocitat del vent: WindSpeedKMH mph 0.0 mph 1.5 mph
Racha vent: WindSpeedGustKMH mph - -
Vent:- - East
Pressio: PressurehPa in 1033.4 in -
Pluja: 0.3 in    
Historical Graphs
 
 
Tabular Data for Diciembre 24, 2017
Time Temperature Dew Point Pressure Wind Wind Speed Wind Gust Humidity Rainfall Rate (Hourly) solar Conditions
TemperatureC °F DewpointC °F PressurehPa in Calm     Humidity % HourlyPrecipMM in SolarRadiationWatts/m^2 W/m2 Conditions
00:03 -0.6 °F -2.2 °F 1038.8 in Calm     89 % 0.0 in 0.0 W/m2 CLR
00:08 -0.6 °F -2.2 °F 1038.8 in Calm     89 % 0.0 in 0.0 W/m2 CLR
00:10 -0.6 °F -2.2 °F 1038.8 in Calm     89 % 0.0 in 0.0 W/m2 CLR
00:13 -0.6 °F -2.2 °F 1038.8 in Calm     89 % 0.0 in 0.0 W/m2 CLR
00:18 -0.6 °F -2.0 °F 1038.8 in Calm     90 % 0.0 in 0.0 W/m2 CLR
00:19 -0.6 °F -2.0 °F 1038.8 in Calm     90 % 0.0 in 0.0 W/m2 CLR
00:20 -0.6 °F -2.2 °F 1038.8 in Calm     89 % 0.0 in 0.0 W/m2 CLR
00:25 -1.1 °F -2.6 °F 1038.8 in Calm     90 % 0.0 in 0.0 W/m2 CLR
00:26 -1.1 °F -2.6 °F 1038.8 in Calm     90 % 0.0 in 0.0 W/m2 CLR
00:31 -1.1 °F -2.6 °F 1038.8 in Calm     90 % 0.0 in 0.0 W/m2 CLR
00:34 -1.1 °F -2.6 °F 1038.8 in Calm     90 % 0.0 in 0.0 W/m2 CLR
00:39 -1.1 °F -2.6 °F 1038.8 in Calm     90 % 0.0 in 0.0 W/m2 CLR
00:44 -0.6 °F -2.0 °F 1038.8 in Calm     90 % 0.0 in 0.0 W/m2 CLR
00:45 -0.6 °F -2.0 °F 1038.8 in Calm     90 % 0.0 in 0.0 W/m2 CLR
00:50 -0.6 °F -2.0 °F 1038.5 in Calm     90 % 0.0 in 0.0 W/m2 CLR
00:51 -0.6 °F -2.0 °F 1038.5 in Calm     90 % 0.0 in 0.0 W/m2 CLR
00:56 -0.6 °F -2.0 °F 1038.5 in Calm     90 % 0.0 in 0.0 W/m2 CLR
01:03 -1.1 °F -2.6 °F 1038.5 in Calm     90 % 0.0 in 0.0 W/m2 CLR
01:05 -1.1 °F -2.6 °F 1038.8 in Calm     90 % 0.0 in 0.0 W/m2 CLR
01:10 -1.1 °F -2.6 °F 1038.5 in Calm     90 % 0.0 in 0.0 W/m2 CLR
01:12 -1.1 °F -2.6 °F 1038.5 in Calm     90 % 0.0 in 0.0 W/m2 CLR
01:17 -1.1 °F -2.6 °F 1038.5 in Calm     90 % 0.0 in 0.0 W/m2 CLR
01:22 -0.6 °F -2.0 °F 1038.5 in Calm     90 % 0.0 in 0.0 W/m2 CLR
01:23 -0.6 °F -2.0 °F 1038.5 in Calm     90 % 0.0 in 0.0 W/m2 CLR
01:28 -0.6 °F -2.0 °F 1038.5 in Calm     90 % 0.0 in 0.0 W/m2 CLR
01:33 -1.1 °F -2.6 °F 1038.5 in Calm     90 % 0.0 in 0.0 W/m2 CLR
01:35 -1.1 °F -2.6 °F 1038.5 in Calm     90 % 0.0 in 0.0 W/m2 CLR
01:40 -1.1 °F -2.6 °F 1038.5 in Calm     90 % 0.0 in 0.0 W/m2 CLR
01:42 -1.1 °F -2.6 °F 1038.5 in Calm     90 % 0.0 in 0.0 W/m2 CLR
01:43 -1.1 °F -2.6 °F 1038.5 in Calm     90 % 0.0 in 0.0 W/m2 CLR
01:48 -1.1 °F -2.4 °F 1038.5 in Calm     91 % 0.0 in 0.0 W/m2 CLR
01:49 -1.1 °F -2.4 °F 1038.5 in Calm     91 % 0.0 in 0.0 W/m2 CLR
01:53 -1.1 °F -2.4 °F 1038.5 in Calm     91 % 0.0 in 0.0 W/m2 CLR
01:58 -1.7 °F -2.9 °F 1038.5 in Calm     91 % 0.0 in 0.0 W/m2 CLR
02:00 -1.7 °F -2.9 °F 1038.5 in Calm     91 % 0.0 in 0.0 W/m2 CLR
02:02 -1.7 °F -2.9 °F 1038.5 in Calm     91 % 0.0 in 0.0 W/m2 CLR
02:06 -1.7 °F -2.9 °F 1038.5 in Calm     91 % 0.0 in 0.0 W/m2 CLR
02:11 -1.7 °F -2.9 °F 1038.5 in Calm     91 % 0.0 in 0.0 W/m2 CLR
02:12 -1.7 °F -2.9 °F 1038.1 in Calm     91 % 0.0 in 0.0 W/m2 CLR
02:14 -1.7 °F -2.9 °F 1038.5 in Calm     91 % 0.0 in 0.0 W/m2 CLR
02:17 -1.7 °F -3.1 °F 1038.5 in Calm     90 % 0.0 in 0.0 W/m2 CLR
02:21 -2.2 °F -3.7 °F 1038.5 in Calm     90 % 0.0 in 0.0 W/m2 CLR
02:22 -2.2 °F -3.7 °F 1038.5 in Calm     90 % 0.0 in 0.0 W/m2 CLR
02:26 -2.2 °F -3.7 °F 1038.5 in Calm     90 % 0.0 in 0.0 W/m2 CLR
02:28 -2.2 °F -3.7 °F 1038.5 in Calm     90 % 0.0 in 0.0 W/m2 CLR
02:33 -2.2 °F -3.7 °F 1038.5 in Calm     90 % 0.0 in 0.0 W/m2 CLR
02:34 -2.2 °F -3.7 °F 1038.5 in Calm     90 % 0.0 in 0.0 W/m2 CLR
02:39 -2.2 °F -3.7 °F 1038.5 in Calm     90 % 0.0 in 0.0 W/m2 CLR
02:40 -2.2 °F -3.7 °F 1038.1 in Calm     90 % 0.0 in 0.0 W/m2 CLR
02:45 -2.8 °F -4.2 °F 1038.1 in Calm     90 % 0.0 in 0.0 W/m2 CLR
02:46 -2.8 °F -4.1 °F 1038.5 in Calm     91 % 0.0 in 0.0 W/m2 CLR
02:49 -2.8 °F -4.1 °F 1038.1 in Calm     91 % 0.0 in 0.0 W/m2 CLR
02:51 -2.8 °F -4.1 °F 1038.1 in Calm     91 % 0.0 in 0.0 W/m2 CLR
02:56 -2.8 °F -4.1 °F 1038.1 in Calm     91 % 0.0 in 0.0 W/m2 CLR
02:57 -2.8 °F -4.1 °F 1038.1 in Calm     91 % 0.0 in 0.0 W/m2 CLR
03:01 -2.8 °F -4.2 °F 1038.1 in Calm     90 % 0.0 in 0.0 W/m2 CLR
03:06 -3.3 °F -4.7 °F 1038.5 in Calm     90 % 0.0 in 0.0 W/m2 CLR
03:07 -3.3 °F -4.7 °F 1038.5 in Calm     90 % 0.0 in 0.0 W/m2 CLR
03:12 -3.3 °F -4.6 °F 1038.5 in Calm     91 % 0.0 in 0.0 W/m2 CLR
03:15 -3.3 °F -4.6 °F 1038.5 in Calm     91 % 0.0 in 0.0 W/m2 CLR
03:17 -3.3 °F -4.7 °F 1038.5 in Calm     90 % 0.0 in 0.0 W/m2 CLR
03:22 -3.3 °F -4.6 °F 1038.5 in Calm     91 % 0.0 in 0.0 W/m2 CLR
03:23 -3.3 °F -4.6 °F 1038.5 in Calm     91 % 0.0 in 0.0 W/m2 CLR
03:28 -3.3 °F -4.6 °F 1038.1 in Calm     91 % 0.0 in 0.0 W/m2 CLR
03:33 -3.3 °F -4.6 °F 1038.1 in Calm     91 % 0.0 in 0.0 W/m2 CLR
03:34 -3.3 °F -4.6 °F 1038.1 in Calm     91 % 0.0 in 0.0 W/m2 CLR
03:39 -3.3 °F -4.6 °F 1038.1 in Calm     91 % 0.0 in 0.0 W/m2 CLR
03:40 -3.3 °F -4.6 °F 1038.1 in Calm     91 % 0.0 in 0.0 W/m2 CLR
03:45 -3.3 °F -4.6 °F 1038.1 in Calm     91 % 0.0 in 0.0 W/m2 CLR
03:49 -3.3 °F -4.4 °F 1038.1 in Calm     92 % 0.0 in 0.0 W/m2 CLR
03:51 -3.3 °F -4.4 °F 1038.1 in Calm     92 % 0.0 in 0.0 W/m2 CLR
03:56 -3.3 °F -4.6 °F 1038.1 in Calm     91 % 0.0 in 0.0 W/m2 CLR
03:58 -3.3 °F -4.6 °F 1038.1 in Calm     91 % 0.0 in 0.0 W/m2 CLR
04:03 -3.3 °F -4.6 °F 1038.1 in Calm     91 % 0.0 in 0.0 W/m2 CLR
04:04 -3.3 °F -4.6 °F 1038.1 in Calm     91 % 0.0 in 0.0 W/m2 CLR
04:09 -3.9 °F -5.2 °F 1038.1 in Calm     91 % 0.0 in 0.0 W/m2 CLR
04:14 -3.9 °F -5.2 °F 1037.8 in Calm     91 % 0.0 in 0.0 W/m2 CLR
04:19 -3.9 °F -5.0 °F 1037.8 in Calm     92 % 0.0 in 0.0 W/m2 CLR
04:21 -3.3 °F -4.4 °F 1037.8 in Calm     92 % 0.0 in 0.0 W/m2 CLR
04:26 -3.3 °F -4.4 °F 1037.8 in Calm     92 % 0.0 in 0.0 W/m2 CLR
05:58 -3.9 °F -5.2 °F 1037.1 in Calm     91 % 0.0 in 0.0 W/m2 CLR
05:59 -3.9 °F -5.2 °F 1037.1 in Calm     91 % 0.0 in 0.0 W/m2 CLR
06:04 -3.9 °F -5.2 °F 1037.1 in Calm     91 % 0.0 in 0.0 W/m2 CLR
06:09 -3.9 °F -5.2 °F 1037.1 in Calm     91 % 0.0 in 0.0 W/m2 CLR
06:14 -3.9 °F -5.0 °F 1037.1 in Calm     92 % 0.0 in 0.0 W/m2 CLR
06:16 -3.9 °F -5.0 °F 1037.5 in Calm     92 % 0.0 in 0.0 W/m2 CLR
06:21 -3.9 °F -5.0 °F 1037.5 in Calm     92 % 0.0 in 0.0 W/m2 CLR
06:22 -3.9 °F -5.0 °F 1037.5 in Calm     92 % 0.0 in 0.0 W/m2 CLR
06:27 -3.9 °F -5.0 °F 1037.1 in Calm     92 % 0.0 in 0.0 W/m2 CLR
06:28 -3.9 °F -5.0 °F 1037.1 in Calm     92 % 0.0 in 0.0 W/m2 CLR
06:33 -3.9 °F -5.0 °F 1037.1 in Calm     92 % 0.0 in 0.0 W/m2 CLR
06:34 -3.9 °F -5.0 °F 1037.1 in Calm     92 % 0.0 in 0.0 W/m2 CLR
06:37 -3.9 °F -5.0 °F 1037.5 in Calm     92 % 0.0 in 0.0 W/m2 CLR
06:40 -3.9 °F -5.0 °F 1037.5 in Calm     92 % 0.0 in 0.0 W/m2 CLR
07:04 -3.9 °F -5.2 °F 1037.5 in Calm     91 % 0.0 in 0.0 W/m2 CLR
07:05 -3.9 °F -5.2 °F 1037.1 in Calm     91 % 0.0 in 0.0 W/m2 CLR
07:10 -3.9 °F -5.2 °F 1037.1 in Calm     91 % 0.0 in 0.0 W/m2 CLR
07:11 -3.9 °F -5.2 °F 1037.1 in Calm     91 % 0.0 in 0.0 W/m2 CLR
07:13 -3.9 °F -5.0 °F 1037.1 in Calm     92 % 0.0 in 0.0 W/m2 CLR
07:17 -3.9 °F -5.0 °F 1037.1 in Calm     92 % 0.0 in 0.0 W/m2 CLR
07:19 -3.9 °F -5.0 °F 1037.1 in Calm     92 % 0.0 in 0.0 W/m2 CLR
07:22 -3.9 °F -5.0 °F 1037.1 in Calm     92 % 0.0 in 0.0 W/m2 CLR
07:32 -3.9 °F -5.0 °F 1037.1 in Calm     92 % 0.0 in 0.0 W/m2 CLR
07:33 -3.9 °F -5.0 °F 1037.1 in Calm     92 % 0.0 in 0.0 W/m2 CLR
07:38 -3.9 °F -5.0 °F 1037.5 in Calm     92 % 0.0 in 0.0 W/m2 CLR
07:42 -3.9 °F -5.0 °F 1037.1 in Calm     92 % 0.0 in 0.0 W/m2 CLR
07:47 -3.9 °F -5.0 °F 1037.1 in Calm     92 % 0.0 in 0.0 W/m2 CLR
07:48 -3.9 °F -5.0 °F 1037.1 in Calm     92 % 0.0 in 0.0 W/m2 CLR
07:52 -3.9 °F -5.0 °F 1037.1 in Calm     92 % 0.0 in 0.0 W/m2 CLR
07:53 -3.9 °F -5.0 °F 1037.1 in Calm     92 % 0.0 in 0.0 W/m2 CLR
07:56 -3.9 °F -5.0 °F 1037.1 in Calm     92 % 0.0 in 0.0 W/m2 CLR
07:58 -3.9 °F -5.0 °F 1037.5 in Calm     92 % 0.0 in 0.0 W/m2 CLR
08:01 -3.9 °F -5.0 °F 1037.1 in Calm     92 % 0.0 in 0.0 W/m2 CLR
08:06 -3.3 °F -4.4 °F 1037.1 in Calm     92 % 0.0 in 0.0 W/m2 CLR
08:07 -3.3 °F -4.4 °F 1037.1 in Calm     92 % 0.0 in 0.0 W/m2 CLR
08:12 -3.3 °F -4.4 °F 1037.1 in Calm     92 % 0.0 in 0.0 W/m2 CLR
08:13 -3.3 °F -4.4 °F 1037.1 in Calm     92 % 0.0 in 0.0 W/m2 OVC
08:18 -3.3 °F -4.4 °F 1037.1 in Calm     92 % 0.0 in 0.0 W/m2 OVC
08:19 -3.3 °F -4.4 °F 1037.1 in Calm     92 % 0.0 in 0.0 W/m2 OVC
08:23 -3.3 °F -4.4 °F 1037.1 in Calm     92 % 0.0 in 5.0 W/m2 OVC
08:24 -3.9 °F -5.0 °F 1037.1 in Calm     92 % 0.0 in 5.0 W/m2 OVC
08:29 -3.9 °F -5.0 °F 1037.1 in Calm     92 % 0.0 in 7.0 W/m2 BKN
08:34 -3.9 °F -5.0 °F 1037.1 in Calm     92 % 0.0 in 9.0 W/m2 BKN
08:39 -3.9 °F -5.0 °F 1037.1 in Calm     92 % 0.0 in 12.0 W/m2 BKN
08:43 -3.9 °F -5.0 °F 1037.1 in Calm     92 % 0.0 in 14.0 W/m2 BKN
08:45 -3.9 °F -5.0 °F 1037.1 in Calm     92 % 0.0 in 14.0 W/m2 BKN
08:50 -3.9 °F -5.0 °F 1037.1 in Calm     92 % 0.0 in 18.0 W/m2 BKN
08:53 -3.9 °F -5.0 °F 1037.1 in Calm     92 % 0.0 in 26.0 W/m2 BKN
08:56 -3.9 °F -5.0 °F 1037.1 in Calm     92 % 0.0 in 32.0 W/m2 BKN
09:00 -3.9 °F -5.0 °F 1037.1 in Calm     92 % 0.0 in 33.0 W/m2 BKN
09:02 -3.3 °F -4.4 °F 1037.1 in Calm     92 % 0.0 in 53.0 W/m2 SCT
09:07 -3.3 °F -4.4 °F 1036.8 in Calm     92 % 0.0 in 67.0 W/m2 FEW
09:08 -3.3 °F -4.4 °F 1036.8 in Calm     92 % 0.0 in 67.0 W/m2 FEW
09:09 -3.3 °F -4.4 °F 1037.1 in Calm     92 % 0.0 in 69.0 W/m2 FEW
09:14 -3.3 °F -4.4 °F 1036.8 in Calm     92 % 0.0 in 69.0 W/m2 FEW
09:19 -3.3 °F -4.4 °F 1037.1 in Calm     92 % 0.0 in 83.0 W/m2 FEW
09:24 -3.3 °F -4.4 °F 1037.1 in Calm     92 % 0.0 in 90.0 W/m2 FEW
09:29 -3.3 °F -4.4 °F 1037.1 in Calm     92 % 0.0 in 90.0 W/m2 CLR
09:32 -3.3 °F -4.4 °F 1037.1 in Calm     92 % 0.0 in 90.0 W/m2 CLR
09:33 -3.3 °F -4.4 °F 1037.1 in Calm     92 % 0.0 in 90.0 W/m2 CLR
09:38 -3.3 °F -4.6 °F 1037.5 in Calm     91 % 0.0 in 113.0 W/m2 CLR
09:39 -3.3 °F -4.6 °F 1037.1 in Calm     91 % 0.0 in 116.0 W/m2 CLR
09:42 -2.8 °F -4.1 °F 1037.1 in Calm     91 % 0.0 in 123.0 W/m2 CLR
09:47 -2.8 °F -4.2 °F 1037.1 in Calm     90 % 0.0 in 116.0 W/m2 CLR
09:48 -2.8 °F -4.2 °F 1037.1 in Calm     90 % 0.0 in 135.0 W/m2 CLR
09:49 -2.8 °F -4.2 °F 1037.1 in Calm     90 % 0.0 in 144.0 W/m2 CLR
09:54 -2.2 °F -3.9 °F 1037.1 in Calm     88 % 0.0 in 156.0 W/m2 CLR
09:59 -1.7 °F -3.6 °F 1037.5 in Calm     87 % 0.0 in 158.0 W/m2 CLR
10:00 -1.7 °F -3.6 °F 1037.5 in Calm     87 % 0.0 in 132.0 W/m2 CLR
10:02 -1.7 °F -3.6 °F 1037.5 in Calm     87 % 0.0 in 123.0 W/m2 CLR
10:07 -1.7 °F -3.6 °F 1037.5 in Calm     87 % 0.0 in 134.0 W/m2 CLR
10:10 -1.7 °F -3.4 °F 1037.5 in Calm     88 % 0.0 in 139.0 W/m2 CLR
10:13 -1.1 °F -2.8 °F 1037.5 in Calm     88 % 0.0 in 153.0 W/m2 CLR
10:16 -1.1 °F -2.8 °F 1037.5 in Calm     88 % 0.0 in 195.0 W/m2 CLR
10:19 -1.1 °F -2.7 °F 1037.5 in Calm     89 % 0.0 in 223.0 W/m2 CLR
10:24 -1.1 °F -2.8 °F 1037.8 in Calm     88 % 0.0 in 236.0 W/m2 CLR
10:25 -1.1 °F -2.8 °F 1037.8 in Calm     88 % 0.0 in 237.0 W/m2 CLR
10:26 -1.1 °F -2.8 °F 1037.5 in Calm     88 % 0.0 in 239.0 W/m2 CLR
10:31 -0.6 °F -2.3 °F 1037.8 in Calm     88 % 0.0 in 251.0 W/m2 CLR
10:36 0.0 °F -1.9 °F 1037.8 in Calm     87 % 0.0 in 265.0 W/m2 CLR
10:37 0.0 °F -1.9 °F 1037.8 in Calm     87 % 0.0 in 269.0 W/m2 CLR
10:39 0.0 °F -1.9 °F 1037.8 in Calm     87 % 0.0 in 274.0 W/m2 CLR
10:44 0.0 °F -1.9 °F 1037.8 in Calm     87 % 0.0 in 288.0 W/m2 CLR
10:46 0.0 °F -2.1 °F 1037.8 in Calm     86 % 0.0 in 281.0 W/m2 CLR
10:48 0.6 °F -1.5 °F 1037.8 in Calm     86 % 0.0 in 294.0 W/m2 CLR
10:51 0.6 °F -1.5 °F 1037.8 in Calm     86 % 0.0 in 299.0 W/m2 CLR
10:55 0.6 °F -1.5 °F 1037.8 in Calm     86 % 0.0 in 306.0 W/m2 CLR
10:56 1.1 °F -0.9 °F 1037.8 in Calm     86 % 0.0 in 306.0 W/m2 CLR
11:01 1.1 °F -0.9 °F 1037.8 in Calm     86 % 0.0 in 318.0 W/m2 CLR
11:05 1.1 °F -1.1 °F 1037.8 in Calm     85 % 0.3 in 323.0 W/m2 RA
11:09 1.7 °F -0.6 °F 1037.8 in Calm     85 % 0.3 in 330.0 W/m2 CLR
11:10 1.7 °F -0.6 °F 1037.8 in Calm     85 % 0.3 in 332.0 W/m2 CLR
11:15 1.7 °F -0.6 °F 1037.8 in Calm     85 % 0.3 in 339.0 W/m2 CLR
11:18 2.2 °F -0.2 °F 1037.8 in Calm     84 % 0.3 in 346.0 W/m2 CLR
11:20 2.2 °F -0.4 °F 1037.8 in Calm     83 % 0.3 in 348.0 W/m2 CLR
11:25 2.8 °F 0.0 °F 1037.5 in Calm     82 % 0.3 in 355.0 W/m2 CLR
11:28 2.8 °F 0.0 °F 1037.8 in Calm     82 % 0.3 in 360.0 W/m2 CLR
11:32 2.8 °F -0.2 °F 1037.5 in Calm     81 % 0.3 in 364.0 W/m2 CLR
11:37 3.3 °F 0.2 °F 1037.5 in Calm     80 % 0.3 in 373.0 W/m2 CLR
11:42 3.9 °F 0.6 °F 1037.5 in Calm     79 % 0.3 in 376.0 W/m2 CLR
11:44 3.9 °F 0.6 °F 1037.5 in Calm     79 % 0.3 in 380.0 W/m2 CLR
11:45 3.9 °F 0.6 °F 1037.5 in Calm     79 % 0.3 in 381.0 W/m2 CLR
11:50 4.4 °F 0.9 °F 1037.5 in Calm     78 % 0.3 in 387.0 W/m2 CLR
11:55 4.4 °F 0.9 °F 1037.1 in Calm     78 % 0.3 in 392.0 W/m2 CLR
11:56 4.4 °F 0.9 °F 1037.1 in Calm     78 % 0.3 in 392.0 W/m2 CLR
11:57 4.4 °F 0.8 °F 1037.1 in Calm     77 % 0.3 in 394.0 W/m2 CLR
12:01 4.4 °F 0.9 °F 1037.1 in East 9.7 mph 9.7 mph 78 % 0.3 in 396.0 W/m2 CLR
12:06 4.4 °F 0.8 °F 1037.1 in ENE 3.7 mph 3.7 mph 77 % 0.0 in 401.0 W/m2 CLR
12:11 4.4 °F 0.8 °F 1037.1 in ENE 5.6 mph 5.6 mph 77 % 0.0 in 404.0 W/m2 CLR
12:15 5.0 °F 1.1 °F 1037.1 in East 3.7 mph 3.7 mph 76 % 0.0 in 408.0 W/m2 CLR
12:19 5.0 °F 1.1 °F 1037.1 in East 5.6 mph 5.6 mph 76 % 0.0 in 410.0 W/m2 CLR
12:20 5.0 °F 1.1 °F 1036.8 in East 13.0 mph 13.0 mph 76 % 0.0 in 410.0 W/m2 CLR
12:25 5.0 °F 1.1 °F 1036.8 in East 13.0 mph 13.0 mph 76 % 0.0 in 413.0 W/m2 CLR
12:26 5.0 °F 1.1 °F 1036.8 in East 13.0 mph 13.0 mph 76 % 0.0 in 413.0 W/m2 CLR
12:31 5.0 °F 1.3 °F 1036.8 in East 3.7 mph 3.7 mph 77 % 0.0 in 417.0 W/m2 CLR
12:32 5.0 °F 1.3 °F 1036.8 in East 3.7 mph 3.7 mph 77 % 0.0 in 417.0 W/m2 CLR
12:35 5.6 °F 1.8 °F 1036.8 in East 5.6 mph 5.6 mph 77 % 0.0 in 418.0 W/m2 CLR
12:37 5.6 °F 1.8 °F 1036.8 in Calm     77 % 0.0 in 418.0 W/m2 CLR
12:42 5.6 °F 1.7 °F 1036.8 in ENE 3.7 mph 3.7 mph 76 % 0.0 in 420.0 W/m2 CLR
12:43 5.6 °F 1.7 °F 1036.8 in East 3.7 mph 3.7 mph 76 % 0.0 in 420.0 W/m2 CLR
12:48 5.6 °F 1.7 °F 1036.5 in East 3.7 mph   76 % 0.0 in 422.0 W/m2 CLR
12:49 5.6 °F 1.7 °F 1036.5 in Calm   0.3 mph 76 % 0.0 in 422.0 W/m2 CLR
12:54 5.6 °F 1.4 °F 1036.5 in East 5.6 mph 5.6 mph 75 % 0.0 in 424.0 W/m2 CLR
12:55 5.6 °F 1.4 °F 1036.5 in East 5.6 mph 5.6 mph 75 % 0.0 in 424.0 W/m2 CLR
13:00 6.1 °F 2.0 °F 1036.5 in East 4.8 mph 4.8 mph 75 % 0.0 in 424.0 W/m2 CLR
13:05 6.1 °F 1.8 °F 1036.5 in East 1.9 mph 1.9 mph 74 % 0.0 in 424.0 W/m2 CLR
13:06 6.7 °F 2.3 °F 1036.1 in East 1.9 mph 1.9 mph 74 % 0.0 in 424.0 W/m2 CLR
13:11 6.7 °F 2.3 °F 1036.1 in East 5.6 mph 5.6 mph 74 % 0.0 in 424.0 W/m2 CLR
13:17 6.7 °F 2.3 °F 1036.1 in East 4.8 mph 4.8 mph 74 % 0.0 in 422.0 W/m2 CLR
13:22 7.2 °F 2.7 °F 1036.1 in East 8.0 mph 8.0 mph 73 % 0.0 in 422.0 W/m2 CLR
13:27 7.2 °F 2.9 °F 1036.1 in East 9.7 mph 9.7 mph 74 % 0.0 in 413.0 W/m2 CLR
13:29 7.2 °F 2.9 °F 1036.1 in East 13.0 mph 13.0 mph 74 % 0.0 in 418.0 W/m2 CLR
13:33 7.2 °F 2.9 °F 1035.8 in ENE 13.0 mph 13.0 mph 74 % 0.0 in 417.0 W/m2 CLR
13:35 7.2 °F 3.1 °F 1035.8 in ESE 6.4 mph 6.4 mph 75 % 0.0 in 417.0 W/m2 CLR
13:40 7.2 °F 3.1 °F 1035.8 in ESE 5.6 mph 5.6 mph 75 % 0.0 in 413.0 W/m2 CLR
13:45 7.2 °F 3.1 °F 1035.8 in East 5.6 mph 5.6 mph 75 % 0.0 in 408.0 W/m2 CLR
13:47 7.2 °F 2.9 °F 1035.4 in East 5.6 mph 5.6 mph 74 % 0.0 in 408.0 W/m2 CLR
13:51 7.2 °F 2.9 °F 1035.4 in ESE 5.6 mph 5.6 mph 74 % 0.0 in 406.0 W/m2 CLR
13:57 7.2 °F 3.1 °F 1035.4 in East 16.7 mph 16.7 mph 75 % 0.0 in 401.0 W/m2 CLR
13:58 7.8 °F 3.6 °F 1035.4 in East 14.8 mph 14.8 mph 75 % 0.0 in 399.0 W/m2 CLR
14:03 7.8 °F 3.6 °F 1035.4 in ENE 14.8 mph 14.8 mph 75 % 0.0 in 396.0 W/m2 CLR
14:08 7.8 °F 3.6 °F 1035.4 in East 14.8 mph 14.8 mph 75 % 0.0 in 388.0 W/m2 CLR
14:10 7.8 °F 3.6 °F 1035.1 in East 9.3 mph 9.3 mph 75 % 0.0 in 388.0 W/m2 CLR
14:14 7.8 °F 3.4 °F 1035.1 in East 13.0 mph 13.0 mph 74 % 0.0 in 383.0 W/m2 CLR
14:19 7.8 °F 3.4 °F 1035.1 in East 14.8 mph 14.8 mph 74 % 0.0 in 376.0 W/m2 CLR
14:20 7.8 °F 3.4 °F 1035.1 in East 14.8 mph 14.8 mph 74 % 0.0 in 376.0 W/m2 CLR
14:25 7.8 °F 3.4 °F 1035.1 in East 14.8 mph 14.8 mph 74 % 0.0 in 371.0 W/m2 CLR
14:26 7.8 °F 3.4 °F 1035.1 in East 9.3 mph 9.3 mph 74 % 0.0 in 369.0 W/m2 CLR
14:29 7.8 °F 3.4 °F 1035.1 in East 5.6 mph 5.6 mph 74 % 0.0 in 366.0 W/m2 CLR
14:31 7.8 °F 3.2 °F 1034.8 in ENE 3.7 mph 3.7 mph 73 % 0.0 in 362.0 W/m2 CLR
14:36 7.8 °F 3.2 °F 1034.8 in East 7.4 mph 7.4 mph 73 % 0.0 in 355.0 W/m2 CLR
14:41 7.8 °F 3.2 °F 1034.8 in East 3.7 mph 3.7 mph 73 % 0.0 in 348.0 W/m2 CLR
14:43 8.3 °F 3.8 °F 1034.8 in East 5.6 mph 5.6 mph 73 % 0.0 in 346.0 W/m2 CLR
14:46 7.8 °F 3.2 °F 1034.8 in East 7.4 mph 7.4 mph 73 % 0.0 in 343.0 W/m2 CLR
14:51 8.3 °F 3.8 °F 1034.8 in East 5.6 mph 5.6 mph 73 % 0.0 in 334.0 W/m2 CLR
14:56 8.3 °F 3.8 °F 1034.4 in East 5.6 mph 5.6 mph 73 % 0.0 in 325.0 W/m2 CLR
14:57 8.3 °F 3.9 °F 1034.4 in Calm     74 % 0.0 in 323.0 W/m2 CLR
15:02 7.8 °F 3.4 °F 1034.4 in East 5.6 mph 5.6 mph 74 % 0.0 in 315.0 W/m2 CLR
15:06 7.8 °F 3.4 °F 1034.4 in East 5.6 mph 5.6 mph 74 % 0.0 in 309.0 W/m2 CLR
15:08 7.8 °F 3.2 °F 1034.4 in ENE 7.4 mph 7.4 mph 73 % 0.0 in 306.0 W/m2 CLR
15:12 7.8 °F 3.4 °F 1034.4 in East 5.6 mph 5.6 mph 74 % 0.0 in 297.0 W/m2 CLR
15:13 7.8 °F 3.4 °F 1034.4 in ENE 7.4 mph 7.4 mph 74 % 0.0 in 295.0 W/m2 CLR
15:18 7.8 °F 3.4 °F 1034.1 in ENE 3.7 mph 3.7 mph 74 % 0.0 in 287.0 W/m2 CLR
15:20 7.8 °F 3.6 °F 1034.4 in East 6.4 mph 6.4 mph 75 % 0.0 in 283.0 W/m2 CLR
15:25 7.8 °F 3.6 °F 1034.1 in East 12.9 mph 12.9 mph 75 % 0.0 in 274.0 W/m2 CLR
15:30 7.2 °F 3.1 °F 1034.4 in East 3.7 mph 3.7 mph 75 % 0.0 in 258.0 W/m2 CLR
15:31 7.2 °F 3.1 °F 1034.4 in East 3.7 mph 3.7 mph 75 % 0.0 in 258.0 W/m2 CLR
15:32 7.2 °F 3.3 °F 1034.4 in East 3.7 mph 3.7 mph 76 % 0.0 in 257.0 W/m2 CLR
15:36 7.2 °F 3.3 °F 1034.1 in ENE 5.6 mph 5.6 mph 76 % 0.0 in 248.0 W/m2 CLR
15:41 6.7 °F 2.9 °F 1034.1 in ENE 3.7 mph 3.7 mph 77 % 0.0 in 232.0 W/m2 CLR
15:46 6.7 °F 2.9 °F 1034.1 in East 5.6 mph 5.6 mph 77 % 0.0 in 220.0 W/m2 CLR
15:47 6.7 °F 2.9 °F 1034.1 in ENE 5.6 mph 5.6 mph 77 % 0.0 in 216.0 W/m2 CLR
15:52 6.7 °F 3.1 °F 1034.1 in East 1.9 mph 1.9 mph 78 % 0.0 in 204.0 W/m2 CLR
15:53 6.7 °F 3.1 °F 1034.1 in East 3.7 mph 3.7 mph 78 % 0.0 in 202.0 W/m2 CLR
15:54 6.7 °F 3.1 °F 1034.1 in East 5.6 mph 5.6 mph 78 % 0.0 in 200.0 W/m2 CLR
15:58 6.7 °F 3.1 °F 1034.1 in East 5.6 mph 5.6 mph 78 % 0.0 in 192.0 W/m2 CLR
16:00 6.7 °F 3.1 °F 1034.1 in East 5.6 mph 5.6 mph 78 % 0.0 in 183.0 W/m2 CLR
16:05 6.7 °F 3.3 °F 1034.1 in Calm     79 % 0.0 in 171.0 W/m2 CLR
16:10 6.1 °F 2.7 °F 1033.7 in Calm     79 % 0.0 in 155.0 W/m2 CLR
16:15 6.1 °F 2.7 °F 1033.7 in Calm     79 % 0.0 in 141.0 W/m2 CLR
16:20 6.1 °F 2.7 °F 1034.1 in East 5.6 mph 5.6 mph 79 % 0.0 in 127.0 W/m2 CLR
16:21 6.1 °F 2.7 °F 1034.1 in East 5.6 mph 5.6 mph 79 % 0.0 in 127.0 W/m2 CLR
16:26 6.1 °F 2.7 °F 1033.7 in East 5.6 mph 5.6 mph 79 % 0.0 in 113.0 W/m2 CLR
16:27 6.1 °F 2.7 °F 1033.7 in East 5.6 mph 5.6 mph 79 % 0.0 in 111.0 W/m2 CLR
16:32 5.6 °F 2.4 °F 1033.7 in East 3.7 mph   80 % 0.0 in 95.0 W/m2 CLR
16:37 5.6 °F 2.4 °F 1033.7 in East 3.7 mph 3.7 mph 80 % 0.0 in 84.0 W/m2 FEW
16:38 5.6 °F 2.4 °F 1033.7 in ENE 3.7 mph 3.7 mph 80 % 0.0 in 81.0 W/m2 FEW
16:43 5.0 °F 1.8 °F 1033.7 in East 6.4 mph 6.4 mph 80 % 0.0 in 62.0 W/m2 SCT
16:48 5.0 °F 2.0 °F 1033.7 in East 5.6 mph 5.6 mph 81 % 0.0 in 46.0 W/m2 SCT
16:49 5.0 °F 2.0 °F 1033.7 in East 5.6 mph 5.6 mph 81 % 0.0 in 49.0 W/m2 SCT
16:50 5.0 °F 2.2 °F 1033.7 in Calm     82 % 0.0 in 49.0 W/m2 SCT
16:55 4.4 °F 1.6 °F 1033.7 in East 5.6 mph 5.6 mph 82 % 0.0 in 39.0 W/m2 BKN
17:00 4.4 °F 1.6 °F 1033.7 in East 5.6 mph 5.6 mph 82 % 0.0 in 32.0 W/m2 BKN
17:05 4.4 °F 1.8 °F 1033.7 in East 5.6 mph 5.6 mph 83 % 0.0 in 25.0 W/m2 BKN
17:06 4.4 °F 1.8 °F 1033.7 in East 5.6 mph 5.6 mph 83 % 0.0 in 23.0 W/m2 BKN
17:11 3.9 °F 1.3 °F 1033.7 in East 5.6 mph 5.6 mph 83 % 0.0 in 18.0 W/m2 BKN
17:12 3.9 °F 1.4 °F 1033.7 in East 3.7 mph   84 % 0.0 in 16.0 W/m2 BKN
17:17 3.9 °F 1.4 °F 1033.7 in Calm     84 % 0.0 in 12.0 W/m2 BKN
17:18 3.9 °F 1.4 °F 1033.7 in Calm     84 % 0.0 in 12.0 W/m2 BKN
17:23 3.3 °F 1.1 °F 1033.7 in Calm     85 % 0.0 in 11.0 W/m2 BKN
17:28 3.3 °F 1.1 °F 1033.7 in Calm     85 % 0.0 in 9.0 W/m2 BKN
17:29 3.3 °F 1.1 °F 1033.7 in Calm     85 % 0.0 in 7.0 W/m2 BKN
17:34 2.8 °F 0.7 °F 1033.7 in Calm     86 % 0.0 in 5.0 W/m2 OVC
17:35 2.8 °F 0.7 °F 1033.7 in ENE 4.8 mph 4.8 mph 86 % 0.0 in 5.0 W/m2 OVC
17:36 2.8 °F 0.7 °F 1033.7 in ENE 6.4 mph 6.4 mph 86 % 0.0 in 5.0 W/m2 OVC
17:40 2.8 °F 0.8 °F 1033.7 in ENE 7.4 mph 7.4 mph 87 % 0.0 in 0.0 W/m2 OVC
17:41 2.8 °F 0.8 °F 1033.7 in East 7.4 mph 7.4 mph 87 % 0.0 in 0.0 W/m2 OVC
17:46 2.2 °F 0.4 °F 1033.7 in Calm     88 % 0.0 in 0.0 W/m2 CLR
17:47 2.2 °F 0.4 °F 1033.7 in Calm     88 % 0.0 in 0.0 W/m2 CLR
17:48 2.2 °F 0.4 °F 1033.7 in Calm     88 % 0.0 in 0.0 W/m2 CLR
17:52 2.2 °F 0.4 °F 1033.7 in Calm     88 % 0.0 in 0.0 W/m2 CLR
17:53 2.2 °F 0.4 °F 1033.4 in Calm     88 % 0.0 in 0.0 W/m2 CLR
17:58 1.7 °F 0.1 °F 1033.7 in Calm     89 % 0.0 in 0.0 W/m2 CLR
18:02 1.7 °F 0.1 °F 1033.7 in Calm     89 % 0.0 in 0.0 W/m2 CLR
18:03 1.7 °F 0.1 °F 1033.7 in Calm     89 % 0.0 in 0.0 W/m2 CLR
18:08 1.7 °F 0.1 °F 1033.7 in Calm     89 % 0.0 in 0.0 W/m2 CLR
18:09 1.7 °F 0.1 °F 1033.7 in Calm     89 % 0.0 in 0.0 W/m2 CLR
18:11 1.7 °F 0.1 °F 1033.7 in Calm     89 % 0.0 in 0.0 W/m2 CLR
18:15 2.2 °F 0.8 °F 1033.7 in Calm     90 % 0.0 in 0.0 W/m2 CLR
18:20 2.2 °F 0.8 °F 1033.7 in Calm     90 % 0.0 in 0.0 W/m2 CLR
18:21 2.2 °F 0.8 °F 1033.7 in Calm     90 % 0.0 in 0.0 W/m2 CLR
18:26 1.7 °F 0.2 °F 1033.7 in Calm     90 % 0.0 in 0.0 W/m2 CLR
18:29 1.7 °F 0.2 °F 1033.7 in Calm     90 % 0.0 in 0.0 W/m2 CLR
18:32 1.7 °F 0.2 °F 1033.7 in Calm     90 % 0.0 in 0.0 W/m2 CLR
18:37 1.7 °F 0.2 °F 1033.7 in Calm     90 % 0.0 in 0.0 W/m2 CLR
18:38 1.7 °F 0.2 °F 1033.7 in Calm     90 % 0.0 in 0.0 W/m2 CLR
18:43 1.7 °F 0.3 °F 1033.7 in Calm     91 % 0.0 in 0.0 W/m2 CLR
18:44 1.7 °F 0.3 °F 1033.7 in Calm     91 % 0.0 in 0.0 W/m2 CLR
18:48 1.7 °F 0.3 °F 1033.7 in Calm     91 % 0.0 in 0.0 W/m2 CLR
18:49 1.7 °F 0.3 °F 1033.7 in Calm     91 % 0.0 in 0.0 W/m2 CLR
18:54 1.7 °F 0.3 °F 1033.7 in Calm     91 % 0.0 in 0.0 W/m2 CLR
18:56 1.7 °F 0.3 °F 1033.7 in Calm     91 % 0.0 in 0.0 W/m2 CLR
19:01 1.7 °F 0.3 °F 1033.7 in Calm     91 % 0.0 in 0.0 W/m2 CLR
19:04 1.7 °F 0.3 °F 1033.7 in Calm     91 % 0.0 in 0.0 W/m2 CLR
19:07 1.7 °F 0.3 °F 1033.7 in Calm     91 % 0.0 in 0.0 W/m2 CLR
19:12 1.1 °F -0.2 °F 1034.1 in Calm     91 % 0.0 in 0.0 W/m2 CLR
19:16 1.1 °F -0.2 °F 1034.1 in Calm     91 % 0.0 in 0.0 W/m2 CLR
19:17 1.1 °F -0.2 °F 1034.1 in Calm     91 % 0.0 in 0.0 W/m2 CLR
19:22 1.1 °F -0.2 °F 1034.1 in Calm     91 % 0.0 in 0.0 W/m2 CLR
19:27 1.1 °F -0.2 °F 1034.1 in Calm     91 % 0.0 in 0.0 W/m2 CLR
19:31 1.1 °F -0.2 °F 1034.1 in Calm     91 % 0.0 in 0.0 W/m2 CLR
19:32 1.1 °F -0.2 °F 1034.1 in Calm     91 % 0.0 in 0.0 W/m2 CLR
19:36 1.1 °F -0.1 °F 1034.1 in Calm     92 % 0.0 in 0.0 W/m2 CLR
19:39 1.1 °F -0.1 °F 1034.1 in Calm     92 % 0.0 in 0.0 W/m2 CLR
19:42 1.1 °F -0.1 °F 1034.1 in Calm     92 % 0.0 in 0.0 W/m2 CLR
19:47 1.1 °F -0.1 °F 1034.1 in Calm     92 % 0.0 in 0.0 W/m2 CLR
19:48 1.1 °F -0.1 °F 1034.1 in Calm     92 % 0.0 in 0.0 W/m2 CLR
19:52 1.1 °F -0.1 °F 1034.1 in Calm     92 % 0.0 in 0.0 W/m2 CLR
19:53 1.1 °F -0.1 °F 1034.1 in Calm     92 % 0.0 in 0.0 W/m2 CLR
19:58 1.1 °F -0.1 °F 1034.1 in Calm     92 % 0.0 in 0.0 W/m2 CLR
19:59 1.1 °F -0.1 °F 1034.1 in Calm     92 % 0.0 in 0.0 W/m2 CLR
20:01 1.1 °F -0.1 °F 1034.1 in Calm     92 % 0.0 in 0.0 W/m2 CLR
20:05 1.1 °F -0.1 °F 1034.1 in Calm     92 % 0.0 in 0.0 W/m2 CLR
20:08 1.1 °F -0.1 °F 1034.4 in Calm     92 % 0.0 in 0.0 W/m2 CLR
20:12 1.1 °F -0.1 °F 1034.4 in Calm     92 % 0.0 in 0.0 W/m2 CLR
20:13 1.1 °F -0.1 °F 1034.4 in Calm     92 % 0.0 in 0.0 W/m2 CLR
20:18 1.1 °F -0.1 °F 1034.1 in Calm     92 % 0.0 in 0.0 W/m2 CLR
20:19 1.1 °F -0.1 °F 1034.1 in Calm     92 % 0.0 in 0.0 W/m2 CLR
20:20 1.1 °F -0.1 °F 1034.4 in Calm     92 % 0.0 in 0.0 W/m2 CLR
20:26 1.1 °F -0.1 °F 1034.4 in Calm     92 % 0.0 in 0.0 W/m2 CLR
20:29 1.1 °F -0.1 °F 1034.4 in Calm     92 % 0.0 in 0.0 W/m2 CLR
20:31 1.1 °F -0.1 °F 1034.4 in Calm     92 % 0.0 in 0.0 W/m2 CLR
20:36 1.1 °F -0.1 °F 1034.1 in Calm     92 % 0.0 in 0.0 W/m2 CLR
20:37 1.1 °F -0.1 °F 1034.1 in Calm     92 % 0.0 in 0.0 W/m2 CLR
20:39 1.1 °F -0.1 °F 1034.1 in Calm     92 % 0.0 in 0.0 W/m2 CLR
20:44 0.6 °F -0.6 °F 1034.4 in Calm     92 % 0.0 in 0.0 W/m2 CLR
20:49 0.6 °F -0.6 °F 1034.1 in Calm     92 % 0.0 in 0.0 W/m2 CLR
20:55 0.6 °F -0.6 °F 1034.1 in Calm     92 % 0.0 in 0.0 W/m2 CLR
21:00 0.6 °F -0.6 °F 1034.1 in Calm     92 % 0.0 in 0.0 W/m2 CLR
21:02 0.6 °F -0.6 °F 1034.1 in Calm     92 % 0.0 in 0.0 W/m2 CLR
21:03 0.6 °F -0.6 °F 1034.1 in Calm     92 % 0.0 in 0.0 W/m2 CLR
21:08 0.6 °F -0.6 °F 1034.1 in Calm     92 % 0.0 in 0.0 W/m2 CLR
21:14 0.6 °F -0.6 °F 1034.1 in Calm     92 % 0.0 in 0.0 W/m2 CLR
21:19 0.6 °F -0.4 °F 1034.1 in Calm     93 % 0.0 in 0.0 W/m2 CLR
21:23 0.6 °F -0.4 °F 1034.1 in Calm     93 % 0.0 in 0.0 W/m2 CLR
21:25 0.6 °F -0.4 °F 1034.1 in Calm     93 % 0.0 in 0.0 W/m2 CLR
21:29 0.0 °F -1.0 °F 1034.1 in Calm     93 % 0.0 in 0.0 W/m2 CLR
21:32 0.0 °F -1.0 °F 1034.1 in Calm     93 % 0.0 in 0.0 W/m2 CLR
21:35 0.0 °F -1.2 °F 1034.1 in Calm     92 % 0.0 in 0.0 W/m2 CLR
21:40 0.0 °F -1.2 °F 1034.1 in Calm     92 % 0.0 in 0.0 W/m2 CLR
21:45 0.0 °F -1.0 °F 1034.1 in Calm     93 % 0.0 in 0.0 W/m2 CLR
21:50 0.0 °F -1.0 °F 1034.1 in Calm     93 % 0.0 in 0.0 W/m2 CLR
21:55 0.0 °F -1.0 °F 1034.1 in Calm     93 % 0.0 in 0.0 W/m2 CLR
21:57 0.0 °F -1.0 °F 1034.1 in Calm     93 % 0.0 in 0.0 W/m2 CLR
22:02 0.0 °F -1.0 °F 1034.1 in Calm     93 % 0.0 in 0.0 W/m2 CLR
22:07 0.0 °F -1.0 °F 1034.1 in Calm     93 % 0.0 in 0.0 W/m2 CLR
22:12 0.0 °F -1.0 °F 1034.1 in Calm     93 % 0.0 in 0.0 W/m2 CLR
22:13 0.0 °F -1.0 °F 1034.1 in Calm     93 % 0.0 in 0.0 W/m2 CLR
22:14 0.0 °F -1.0 °F 1034.1 in Calm     93 % 0.0 in 0.0 W/m2 CLR
22:19 0.0 °F -1.0 °F 1034.1 in Calm     93 % 0.0 in 0.0 W/m2 CLR
22:20 0.0 °F -1.0 °F 1034.1 in Calm     93 % 0.0 in 0.0 W/m2 CLR
22:24 0.0 °F -1.0 °F 1034.1 in Calm     93 % 0.0 in 0.0 W/m2 CLR
22:25 0.0 °F -1.0 °F 1034.1 in Calm     93 % 0.0 in 0.0 W/m2 CLR
22:30 -0.6 °F -1.6 °F 1034.1 in Calm     93 % 0.0 in 0.0 W/m2 CLR
22:33 -0.6 °F -1.6 °F 1034.1 in Calm     93 % 0.0 in 0.0 W/m2 CLR
22:38 -0.6 °F -1.6 °F 1034.1 in Calm     93 % 0.0 in 0.0 W/m2 CLR
22:41 -0.6 °F -1.6 °F 1034.1 in Calm     93 % 0.0 in 0.0 W/m2 CLR
22:45 -0.6 °F -1.6 °F 1033.7 in Calm     93 % 0.0 in 0.0 W/m2 CLR
22:50 -0.6 °F -1.6 °F 1034.1 in Calm     93 % 0.0 in 0.0 W/m2 CLR
22:51 -0.6 °F -1.6 °F 1034.1 in Calm     93 % 0.0 in 0.0 W/m2 CLR
22:53 -0.6 °F -1.6 °F 1034.1 in Calm     93 % 0.0 in 0.0 W/m2 CLR
22:58 -0.6 °F -1.6 °F 1034.1 in Calm     93 % 0.0 in 0.0 W/m2 CLR
23:00 -0.6 °F -1.6 °F 1034.1 in Calm     93 % 0.0 in 0.0 W/m2 CLR
23:04 -0.6 °F -1.6 °F 1034.1 in Calm     93 % 0.0 in 0.0 W/m2 CLR
23:06 -0.6 °F -1.6 °F 1033.7 in Calm     93 % 0.0 in 0.0 W/m2 CLR
23:10 -0.6 °F -1.6 °F 1034.1 in Calm     93 % 0.0 in 0.0 W/m2 CLR
23:13 -0.6 °F -1.6 °F 1034.1 in Calm     93 % 0.0 in 0.0 W/m2 CLR
23:16 -0.6 °F -1.6 °F 1034.1 in Calm     93 % 0.0 in 0.0 W/m2 CLR
23:19 -0.6 °F -1.6 °F 1034.1 in Calm     93 % 0.0 in 0.0 W/m2 CLR
23:24 -0.6 °F -1.6 °F 1034.1 in Calm     93 % 0.0 in 0.0 W/m2 CLR
23:25 -0.6 °F -1.6 °F 1034.1 in Calm     93 % 0.0 in 0.0 W/m2 CLR
23:27 -0.6 °F -1.6 °F 1034.1 in Calm     93 % 0.0 in 0.0 W/m2 CLR
23:32 -1.1 °F -2.1 °F 1034.1 in Calm     93 % 0.0 in 0.0 W/m2 CLR
23:33 -1.1 °F -2.1 °F 1034.1 in Calm     93 % 0.0 in 0.0 W/m2 CLR
23:38 -1.1 °F -2.1 °F 1034.1 in Calm     93 % 0.0 in 0.0 W/m2 CLR
23:40 -1.1 °F -2.1 °F 1034.1 in Calm     93 % 0.0 in 0.0 W/m2 CLR
23:41 -1.1 °F -2.1 °F 1034.1 in Calm     93 % 0.0 in 0.0 W/m2 CLR
23:45 -1.1 °F -2.1 °F 1034.1 in Calm     93 % 0.0 in 0.0 W/m2 CLR
23:46 -1.1 °F -2.1 °F 1034.1 in Calm     93 % 0.0 in 0.0 W/m2 CLR
23:51 -1.1 °F -2.1 °F 1034.1 in Calm     93 % 0.0 in 0.0 W/m2 CLR
23:56 -1.1 °F -2.1 °F 1034.1 in Calm     93 % 0.0 in 0.0 W/m2 CLR
23:57 -1.1 °F -2.1 °F 1034.1 in Calm     93 % 0.0 in 0.0 W/m2 CLR
Lo Temps de Massalio
Compliments of Weather Underground - 1.5 mb